Time;durP1;ratioP1;P1;durP2;ratioP2;P2;SDS_P1;SDS_P2;PMS_P1;PMS_P2;Temp;Humidity;BMP_temperature;BMP_pressure;BME280_temperature;BME280_humidity;BME280_pressure;Samples;Min_cycle;Max_cycle;Signal;HPM_P1;HPM_P2
2022/10/16 00:00:43;;;;;;;15.82;9.38;;;;;;;12.98;53.05;100280.91;5013878;28;20469;-79
2022/10/16 00:03:10;;;;;;;12.35;9.05;;;;;;;12.62;53.30;100224.94;5014085;28;20108;-79
2022/10/16 00:05:41;;;;;;;16.15;9.23;;;;;;;13.01;53.41;100285.84;5013941;28;20029;-79
2022/10/16 00:08:07;;;;;;;14.25;8.82;;;;;;;12.94;53.60;100314.06;5013547;28;20510;-79
2022/10/16 00:10:33;;;;;;;15.63;10.10;;;;;;;12.77;53.70;100256.03;5013793;28;20037;-78
2022/10/16 00:12:58;;;;;;;14.90;9.90;;;;;;;12.86;53.32;100290.25;5014115;28;20517;-79
2022/10/16 00:15:24;;;;;;;20.45;10.70;;;;;;;12.18;53.65;100192.91;5013819;28;20499;-79
2022/10/16 00:17:49;;;;;;;18.73;11.15;;;;;;;12.44;53.79;100245.56;5013512;28;20495;-79
2022/10/16 00:20:15;;;;;;;16.48;10.45;;;;;;;12.43;53.76;100222.75;5013597;28;20103;-79
2022/10/16 00:22:40;;;;;;;17.42;10.75;;;;;;;12.55;53.67;100258.44;5012246;28;20021;-79
2022/10/16 00:25:06;;;;;;;17.15;10.07;;;;;;;12.05;53.00;100153.75;5013442;28;20029;-79
2022/10/16 00:27:31;;;;;;;18.75;11.40;;;;;;;12.19;53.31;100193.72;5012025;28;20029;-79
2022/10/16 00:29:57;;;;;;;16.35;10.32;;;;;;;12.08;53.31;100179.06;5013463;28;20060;-79
2022/10/16 00:32:22;;;;;;;15.80;9.55;;;;;;;12.39;53.72;100240.81;5013446;28;20030;-79
2022/10/16 00:34:47;;;;;;;13.45;10.70;;;;;;;12.07;53.33;100190.63;5013198;28;20494;-79
2022/10/16 00:37:13;;;;;;;17.23;10.73;;;;;;;12.14;53.92;100207.50;5012052;28;20117;-79
2022/10/16 00:39:38;;;;;;;17.27;9.93;;;;;;;12.22;53.48;100239.22;5011884;28;20026;-79
2022/10/16 00:42:04;;;;;;;14.70;9.65;;;;;;;12.39;53.60;100259.34;5013143;28;20029;-79
2022/10/16 00:44:56;;;;;;;15.43;10.98;;;;;;;12.58;53.50;100292.53;5013270;28;20473;-79
2022/10/16 00:47:24;;;;;;;;;;;;;;;12.27;54.63;100300.44;5013647;28;20037;-79
2022/10/16 00:49:53;;;;;;;16.05;9.85;;;;;;;12.09;54.05;100279.47;5012781;28;19910;-79
2022/10/16 00:52:19;;;;;;;15.93;9.93;;;;;;;12.03;54.22;100268.72;5012827;28;20395;-79
2022/10/16 00:54:46;;;;;;;17.50;11.32;;;;;;;12.33;54.22;100309.50;5013031;28;21066;-79
2022/10/16 00:57:11;;;;;;;13.43;8.73;;;;;;;11.61;53.94;100184.28;5012986;28;20105;-78
2022/10/16 00:59:39;;;;;;;14.35;9.20;;;;;;;12.29;54.53;100295.78;5012931;28;20101;-79
2022/10/16 01:02:07;;;;;;;15.80;9.00;;;;;;;12.26;54.33;100295.31;5013031;28;20032;-79
2022/10/16 01:04:48;;;;;;;13.27;8.18;;;;;;;11.61;54.97;100192.22;5013134;28;20533;-79
2022/10/16 01:07:38;;;;;;;15.25;8.65;;;;;;;11.86;54.45;100246.75;5012802;28;20548;-79
2022/10/16 01:10:22;;;;;;;12.68;8.35;;;;;;;12.07;54.33;100284.09;5011919;28;20120;-79
2022/10/16 01:13:11;;;;;;;12.85;8.73;;;;;;;11.22;54.35;100155.94;5012645;28;20160;-79
2022/10/16 01:16:01;;;;;;;13.80;8.98;;;;;;;11.38;54.73;100189.44;5011259;28;20025;-79
2022/10/16 01:18:37;;;;;;;10.52;8.00;;;;;;;11.07;54.48;100154.94;5012743;28;20057;-79
2022/10/16 01:21:10;;;;;;;15.60;8.35;;;;;;;12.01;54.79;100313.06;5012628;28;20030;-79
2022/10/16 01:24:29;;;;;;;16.67;9.02;;;;;;;11.94;54.75;100320.84;5011749;28;20026;-79
2022/10/16 01:27:25;;;;;;;17.45;7.97;;;;;;;11.82;54.56;100330.09;4994932;28;20034;-79
2022/10/16 01:29:59;;;;;;;13.45;6.90;;;;;;;11.77;55.18;100327.09;5003545;28;20080;-78
2022/10/16 01:32:45;;;;;;;12.85;7.72;;;;;;;10.68;55.48;100155.59;5005186;28;20545;-79
2022/10/16 01:35:22;;;;;;;13.15;8.38;;;;;;;11.84;54.95;100332.59;5010807;28;20108;-79
2022/10/16 01:38:10;;;;;;;12.20;7.90;;;;;;;11.84;55.18;100333.41;5012563;28;20030;-79
2022/10/16 01:40:39;;;;;;;11.43;7.35;;;;;;;11.52;54.96;100281.31;5012455;28;20108;-79
2022/10/16 01:43:31;;;;;;;13.50;7.47;;;;;;;11.50;55.14;100278.03;5012189;28;20038;-79
2022/10/16 01:45:58;;;;;;;13.10;7.60;;;;;;;11.77;54.83;100329.75;5011961;28;20026;-79
2022/10/16 01:48:24;;;;;;;14.52;7.25;;;;;;;11.42;55.09;100272.72;5011867;28;20025;-79
2022/10/16 01:50:59;;;;;;;10.35;6.88;;;;;;;11.81;54.16;100320.50;5011880;28;20026;-79
2022/10/16 01:53:26;;;;;;;13.93;8.13;;;;;;;11.33;54.69;100265.78;5012030;28;20033;-79
2022/10/16 01:55:54;;;;;;;12.02;7.13;;;;;;;11.30;54.81;100266.13;5011763;28;20032;-79
2022/10/16 01:58:21;;;;;;;12.30;8.00;;;;;;;11.55;54.76;100310.09;5010515;28;20037;-79
2022/10/16 02:00:47;;;;;;;14.23;7.20;;;;;;;11.43;54.84;100292.88;5011651;28;20487;-79
2022/10/16 02:03:18;;;;;;;13.73;7.45;;;;;;;11.11;54.70;100254.84;5011845;28;20029;-79
2022/10/16 02:05:53;;;;;;;12.37;7.10;;;;;;;11.31;55.06;100305.63;5011806;28;20510;-79
2022/10/16 02:08:19;;;;;;;14.10;7.15;;;;;;;11.72;54.63;100353.22;5010247;28;20089;-79
2022/10/16 02:10:45;;;;;;;11.25;7.25;;;;;;;11.31;54.43;100294.22;5011776;28;20022;-79
2022/10/16 02:13:19;;;;;;;9.73;7.07;;;;;;;11.74;55.04;100348.59;5011755;28;20499;-79
2022/10/16 02:15:45;;;;;;;13.75;7.53;;;;;;;11.76;54.67;100371.25;5011668;28;20026;-79
2022/10/16 02:18:11;;;;;;;10.48;7.72;;;;;;;11.51;54.71;100323.81;5010361;28;20036;-79
2022/10/16 02:20:44;;;;;;;11.75;7.90;;;;;;;11.67;54.67;100359.00;5011565;28;20033;-80
2022/10/16 02:23:17;;;;;;;12.70;7.35;;;;;;;11.73;55.14;100358.34;5010550;28;20021;-79
2022/10/16 02:25:45;;;;;;;12.20;7.53;;;;;;;10.13;54.56;100097.19;5010412;28;20021;-79
2022/10/16 02:28:18;;;;;;;10.70;7.22;;;;;;;11.71;54.74;100359.50;5011623;28;20049;-79
2022/10/16 02:30:56;;;;;;;11.30;7.18;;;;;;;11.48;55.13;100332.88;5010890;28;20033;-79
2022/10/16 02:33:24;;;;;;;10.73;6.63;;;;;;;11.06;54.60;100248.41;5011682;28;20036;-79
2022/10/16 02:35:51;;;;;;;11.32;7.15;;;;;;;11.34;54.81;100299.16;5011539;28;20065;-79
2022/10/16 02:38:18;;;;;;;14.85;7.63;;;;;;;11.66;55.13;100359.19;5009998;28;20414;-79
2022/10/16 02:40:44;;;;;;;11.52;6.35;;;;;;;9.96;54.59;100087.59;5009892;28;20457;-79
2022/10/16 02:43:09;;;;;;;11.02;6.40;;;;;;;11.51;54.74;100332.56;5011523;28;20037;-79
2022/10/16 02:45:35;;;;;;;12.15;7.00;;;;;;;11.66;54.57;100367.94;5011500;28;20026;-79
2022/10/16 02:48:01;;;;;;;10.52;7.30;;;;;;;10.93;55.01;100270.03;5011485;28;20033;-79
2022/10/16 02:50:26;;;;;;;12.57;7.03;;;;;;;11.16;55.02;100286.09;5011116;28;20041;-79
2022/10/16 02:52:51;;;;;;;10.23;6.32;;;;;;;10.95;55.11;100252.19;5011273;28;20116;-79
2022/10/16 02:55:17;;;;;;;16.55;7.22;;;;;;;11.67;55.41;100364.31;5011402;28;20025;-79
2022/10/16 02:57:43;;;;;;;12.32;7.35;;;;;;;11.68;55.71;100367.78;5011354;28;20022;-79
2022/10/16 03:00:11;;;;;;;12.63;7.18;;;;;;;10.82;55.10;100259.75;5011335;28;20026;-79
2022/10/16 03:02:37;;;;;;;10.73;7.55;;;;;;;10.93;55.08;100259.44;5011611;28;20030;-79
2022/10/16 03:05:02;;;;;;;9.38;7.10;;;;;;;10.87;55.02;100252.19;5009828;28;20034;-79
2022/10/16 03:07:27;;;;;;;14.70;8.00;;;;;;;11.15;55.20;100305.59;5013497;28;20054;-79
2022/10/16 03:09:54;;;;;;;12.68;8.50;;;;;;;11.19;55.31;100308.75;5014815;28;20033;-79
2022/10/16 03:12:19;;;;;;;10.82;7.63;;;;;;;10.75;55.11;100258.75;5013551;28;20025;-79
2022/10/16 03:14:45;;;;;;;11.88;6.63;;;;;;;11.30;55.41;100340.97;5014952;28;20419;-79
2022/10/16 03:17:10;;;;;;;14.70;7.20;;;;;;;11.45;55.23;100379.00;5013560;28;20022;-79
2022/10/16 03:19:36;;;;;;;11.82;7.60;;;;;;;10.73;55.77;100266.00;5013578;28;20014;-79
2022/10/16 03:22:02;;;;;;;14.52;7.38;;;;;;;10.95;55.50;100315.59;5014670;28;20050;-79
2022/10/16 03:24:27;;;;;;;10.85;6.70;;;;;;;10.81;55.57;100284.53;5013705;28;20080;-79
2022/10/16 03:26:52;;;;;;;13.52;7.50;;;;;;;11.03;55.61;100328.00;5014762;28;20022;-79
2022/10/16 03:29:18;;;;;;;11.20;7.10;;;;;;;10.80;56.00;100273.13;5014766;28;20014;-79
2022/10/16 03:31:43;;;;;;;11.95;8.48;;;;;;;11.06;55.99;100332.97;5014604;28;20052;-79
2022/10/16 03:34:08;;;;;;;10.05;7.28;;;;;;;11.25;56.25;100367.06;5013048;28;20113;-79
2022/10/16 03:36:34;;;;;;;12.10;7.50;;;;;;;10.95;55.88;100320.06;5014323;28;20029;-79
2022/10/16 03:39:00;;;;;;;13.32;7.53;;;;;;;10.91;55.68;100319.56;5014180;28;20045;-79
2022/10/16 03:41:25;;;;;;;12.35;7.53;;;;;;;11.16;55.56;100346.91;5014178;28;20092;-79
2022/10/16 03:43:50;;;;;;;8.95;7.28;;;;;;;10.85;55.17;100300.88;5014042;28;20467;-79
2022/10/16 03:46:16;;;;;;;10.98;7.40;;;;;;;11.01;55.47;100329.97;5012784;28;20537;-79
2022/10/16 03:48:41;;;;;;;10.98;7.03;;;;;;;10.67;55.75;100295.72;5014013;28;20022;-79
2022/10/16 03:51:06;;;;;;;13.38;7.30;;;;;;;11.32;55.96;100396.31;5012773;28;20473;-79
2022/10/16 03:53:32;;;;;;;12.55;7.63;;;;;;;11.09;56.18;100386.31;5012715;28;20406;-79
2022/10/16 03:55:58;;;;;;;12.77;7.57;;;;;;;10.42;55.75;100253.38;5013909;28;20411;-79
2022/10/16 03:58:24;;;;;;;12.52;7.30;;;;;;;10.62;55.90;100293.56;5013809;28;20098;-79
2022/10/16 04:00:49;;;;;;;10.93;7.30;;;;;;;11.33;56.34;100408.56;5013706;28;20045;-79
2022/10/16 04:03:15;;;;;;;12.02;7.20;;;;;;;11.31;56.00;100419.28;5013879;28;20018;-79
2022/10/16 04:05:41;;;;;;;11.73;7.13;;;;;;;11.10;56.29;100360.72;5013989;28;20021;-79
2022/10/16 04:08:06;;;;;;;13.55;7.70;;;;;;;11.28;55.59;100384.41;5013624;28;20439;-79
2022/10/16 04:10:31;;;;;;;11.13;7.60;;;;;;;10.29;55.81;100238.94;5013798;28;20053;-79
2022/10/16 04:12:57;;;;;;;12.40;7.43;;;;;;;10.87;55.52;100312.13;5012469;28;20104;-79
2022/10/16 04:15:24;;;;;;;13.85;8.13;;;;;;;11.04;55.48;100348.97;5013653;28;20017;-79
2022/10/16 04:17:50;;;;;;;11.65;7.50;;;;;;;10.74;55.75;100292.25;5013154;28;20067;-79
2022/10/16 04:20:16;;;;;;;9.90;7.18;;;;;;;11.32;55.51;100381.28;5013549;28;20030;-79
2022/10/16 04:22:41;;;;;;;10.75;7.57;;;;;;;11.09;55.57;100338.75;5013660;28;20088;-79
2022/10/16 04:25:07;;;;;;;12.65;7.47;;;;;;;10.73;55.22;100287.97;5013470;28;20061;-80
2022/10/16 04:27:32;;;;;;;11.38;7.65;;;;;;;11.37;55.26;100396.66;5013444;28;20057;-79
2022/10/16 04:29:59;;;;;;;14.18;7.72;;;;;;;11.50;55.58;100406.78;5013390;28;20406;-79
2022/10/16 04:32:25;;;;;;;12.35;8.00;;;;;;;11.16;55.52;100375.97;5012054;28;20068;-79
2022/10/16 04:34:51;;;;;;;13.38;8.82;;;;;;;10.92;55.28;100339.69;5013344;28;20061;-79
2022/10/16 04:37:16;;;;;;;13.18;7.55;;;;;;;11.18;56.17;100416.28;5013306;28;20048;-79
2022/10/16 04:39:41;;;;;;;14.73;8.60;;;;;;;11.23;55.46;100406.06;5012967;28;20025;-79
2022/10/16 04:42:07;;;;;;;15.57;7.65;;;;;;;11.26;55.69;100416.31;5013014;28;20024;-79
2022/10/16 04:44:32;;;;;;;11.30;7.43;;;;;;;10.74;55.71;100345.09;5013076;28;20499;-79
2022/10/16 04:46:57;;;;;;;15.63;7.90;;;;;;;11.02;55.40;100377.38;5013003;28;20558;-79
2022/10/16 04:49:23;;;;;;;11.88;7.18;;;;;;;11.08;55.39;100399.69;5012742;28;20032;-79
2022/10/16 04:51:48;;;;;;;13.48;8.02;;;;;;;10.18;55.69;100230.31;5012714;28;20026;-79
2022/10/16 04:54:14;;;;;;;11.93;8.23;;;;;;;11.08;55.79;100374.09;5012846;28;20022;-79
2022/10/16 04:56:50;;;;;;;13.30;8.30;;;;;;;11.53;55.18;100430.25;5011578;28;20465;-79
2022/10/16 04:59:16;;;;;;;13.07;7.93;;;;;;;11.29;55.25;100401.94;5012813;28;20025;-79
2022/10/16 05:01:41;;;;;;;11.20;8.80;;;;;;;11.21;55.28;100394.81;5011596;28;20414;-79
2022/10/16 05:04:07;;;;;;;13.32;8.25;;;;;;;11.32;55.31;100391.03;5012633;28;20055;-79
2022/10/16 05:06:33;;;;;;;11.75;7.97;;;;;;;11.22;55.20;100377.97;5012594;28;20045;-79
2022/10/16 05:08:58;;;;;;;14.50;8.40;;;;;;;11.66;54.86;100431.44;5013127;28;20029;-79
2022/10/16 05:11:24;;;;;;;11.90;7.95;;;;;;;10.89;54.60;100318.06;5011462;28;20025;-79
2022/10/16 05:13:49;;;;;;;13.10;8.13;;;;;;;11.17;54.39;100361.75;5012425;28;20109;-79
2022/10/16 05:16:15;;;;;;;12.02;7.90;;;;;;;11.54;54.92;100442.47;5012222;28;20105;-79
2022/10/16 05:18:40;;;;;;;14.43;8.30;;;;;;;11.22;54.67;100379.78;5011116;28;20129;-79
2022/10/16 05:21:05;;;;;;;15.13;9.13;;;;;;;10.93;54.78;100324.69;5012297;28;20018;-79
2022/10/16 05:23:31;;;;;;;11.45;8.25;;;;;;;11.33;55.24;100393.53;5012300;28;20041;-79
2022/10/16 05:25:59;;;;;;;16.67;9.35;;;;;;;11.82;54.87;100459.75;5012348;28;20025;-79
2022/10/16 05:28:29;;;;;;;16.85;10.15;;;;;;;11.82;55.23;100464.22;5011863;28;20026;-79
2022/10/16 05:30:55;;;;;;;11.18;8.85;;;;;;;11.09;54.99;100361.72;5012396;28;20026;-79
2022/10/16 05:33:22;;;;;;;18.23;9.25;;;;;;;11.77;55.19;100483.19;5011084;28;20487;-79
2022/10/16 05:35:47;;;;;;;11.95;8.73;;;;;;;11.74;54.96;100478.22;5012359;28;20104;-79
2022/10/16 05:38:13;;;;;;;15.27;9.32;;;;;;;11.73;55.59;100479.22;5012210;28;20101;-79
2022/10/16 05:40:39;;;;;;;15.18;9.20;;;;;;;11.33;55.42;100419.13;5011984;28;20033;-79
2022/10/16 05:43:04;;;;;;;13.77;9.90;;;;;;;11.62;55.22;100498.88;5010740;28;20030;-79
2022/10/16 05:45:29;;;;;;;14.65;10.23;;;;;;;11.12;55.27;100382.53;5011805;28;20026;-79
2022/10/16 05:47:55;;;;;;;20.35;10.27;;;;;;;11.07;55.55;100380.38;5012016;28;20096;-79
2022/10/16 05:50:20;;;;;;;14.48;9.75;;;;;;;11.12;55.13;100383.38;5010985;28;20041;-79
2022/10/16 05:52:46;;;;;;;16.50;9.45;;;;;;;11.43;55.17;100414.53;5012180;28;20026;-79
2022/10/16 05:55:11;;;;;;;15.02;9.85;;;;;;;11.39;55.05;100397.34;5012090;28;20057;-79
2022/10/16 05:57:37;;;;;;;12.85;9.75;;;;;;;12.01;55.28;100485.09;5011916;28;20053;-79
2022/10/16 06:00:03;;;;;;;15.48;10.50;;;;;;;12.07;55.22;100479.16;5011770;28;20049;-79
2022/10/16 06:02:28;;;;;;;14.18;10.38;;;;;;;11.67;55.04;100416.38;5012270;28;20026;-79
2022/10/16 06:04:54;;;;;;;15.35;11.00;;;;;;;11.49;54.69;100365.44;5010691;28;20018;-79
2022/10/16 06:07:20;;;;;;;16.95;10.57;;;;;;;11.65;54.87;100376.03;5010474;28;20483;-79
2022/10/16 06:09:51;;;;;;;14.82;10.20;;;;;;;12.03;54.81;100433.66;5011814;28;20542;-79
2022/10/16 06:12:17;;;;;;;14.88;10.57;;;;;;;11.28;54.49;100297.19;5011771;28;20120;-79
2022/10/16 06:14:42;;;;;;;16.33;10.50;;;;;;;12.66;54.26;100504.47;5011859;28;20205;-79
2022/10/16 06:17:08;;;;;;;17.00;10.30;;;;;;;12.52;54.08;100485.75;5011807;28;20100;-79
2022/10/16 06:19:33;;;;;;;16.83;10.57;;;;;;;12.14;54.00;100408.66;5011692;28;20030;-79
2022/10/16 06:21:59;;;;;;;12.88;10.23;;;;;;;12.07;54.25;100403.22;5011836;28;20633;-80
2022/10/16 06:24:25;;;;;;;15.73;10.43;;;;;;;12.42;54.78;100451.50;5011755;28;20029;-79
2022/10/16 06:26:50;;;;;;;12.63;10.05;;;;;;;11.96;54.62;100382.38;5010174;28;20030;-79
2022/10/16 06:29:15;;;;;;;20.10;9.93;;;;;;;12.27;54.56;100426.69;5011618;28;20088;-79
2022/10/16 06:31:41;;;;;;;14.32;9.52;;;;;;;12.54;54.60;100467.88;5011661;28;20025;-79
2022/10/16 06:34:10;;;;;;;13.85;9.98;;;;;;;12.30;54.73;100424.53;5011361;28;20025;-79
2022/10/16 06:36:36;;;;;;;11.63;9.05;;;;;;;12.94;55.49;100527.94;5011245;28;20409;-79
2022/10/16 06:39:01;;;;;;;14.77;10.45;;;;;;;12.70;55.36;100484.59;5011411;28;20021;-79
2022/10/16 06:41:27;;;;;;;14.15;10.40;;;;;;;12.52;55.47;100438.06;5012871;28;20554;-79
2022/10/16 06:43:52;;;;;;;15.00;10.52;;;;;;;13.07;55.37;100540.66;5014092;28;20030;-79
2022/10/16 06:46:21;;;;;;;16.77;9.73;;;;;;;12.38;55.05;100413.94;5015230;28;20089;-79
2022/10/16 06:48:47;;;;;;;15.70;9.05;;;;;;;12.41;55.33;100410.13;5015081;28;20510;-79
2022/10/16 06:51:17;;;;;;;14.60;9.00;;;;;;;12.43;55.22;100402.00;5015019;28;20033;-79
2022/10/16 06:53:48;;;;;;;8.73;7.82;;;;;;;13.39;55.46;100532.66;5015180;28;20018;-77
2022/10/16 06:56:22;;;;;;;9.23;8.05;;;;;;;13.50;55.26;100524.31;5015211;28;20422;-79
2022/10/16 06:58:48;;;;;;;8.88;6.90;;;;;;;13.63;55.16;100537.84;5013740;28;20426;-79
2022/10/16 07:01:15;;;;;;;9.40;7.13;;;;;;;12.94;55.17;100414.78;5014938;28;20034;-79
2022/10/16 07:03:42;;;;;;;7.95;6.63;;;;;;;13.20;54.88;100441.06;5014968;28;20026;-79
2022/10/16 07:06:09;;;;;;;7.80;6.30;;;;;;;13.93;54.42;100548.66;5014935;28;20029;-79
2022/10/16 07:08:37;;;;;;;9.02;6.47;;;;;;;13.61;53.86;100473.53;5014814;28;20026;-79
2022/10/16 07:11:08;;;;;;;6.90;5.25;;;;;;;13.76;53.50;100489.53;5015155;28;20061;-79
2022/10/16 07:13:35;;;;;;;5.75;4.97;;;;;;;14.18;53.41;100539.53;5013438;28;20018;-79
2022/10/16 07:16:07;;;;;;;9.40;5.55;;;;;;;14.11;53.27;100519.16;5013275;28;20026;-79
2022/10/16 07:18:33;;;;;;;8.43;5.45;;;;;;;14.18;52.95;100534.22;5014724;28;20018;-79
2022/10/16 07:21:09;;;;;;;6.95;5.63;;;;;;;14.43;52.44;100553.50;5014755;28;20545;-79
2022/10/16 07:23:35;;;;;;;7.10;5.82;;;;;;;13.77;52.24;100439.91;5014727;28;20597;-79
2022/10/16 07:26:01;;;;;;;6.55;5.40;;;;;;;14.06;52.06;100485.16;5013176;28;20056;-79
2022/10/16 07:28:27;;;;;;;7.13;4.90;;;;;;;14.34;51.57;100512.03;5014227;28;20026;-79
2022/10/16 07:30:52;;;;;;;7.47;5.10;;;;;;;13.63;51.15;100376.00;5014318;28;20034;-79
2022/10/16 07:33:18;;;;;;;8.00;4.88;;;;;;;14.27;51.14;100488.00;5014281;28;20018;-79
2022/10/16 07:35:51;;;;;;;6.63;5.00;;;;;;;14.17;50.72;100462.69;5012915;28;20465;-79
2022/10/16 07:38:17;;;;;;;7.55;5.43;;;;;;;14.73;50.80;100533.13;5014403;28;20010;-79
2022/10/16 07:40:43;;;;;;;9.15;5.40;;;;;;;14.45;50.86;100511.63;5014368;28;20409;-78
2022/10/16 07:43:08;;;;;;;6.28;4.65;;;;;;;14.12;50.33;100438.47;5014190;28;20084;-79
2022/10/16 07:45:34;;;;;;;9.43;5.60;;;;;;;14.54;50.11;100491.13;5014118;28;20045;-79
2022/10/16 07:47:59;;;;;;;7.75;4.70;;;;;;;14.58;50.14;100509.19;5014010;28;20033;-79
2022/10/16 07:50:24;;;;;;;6.35;5.07;;;;;;;14.59;49.65;100478.13;5014136;28;20075;-77
2022/10/16 07:52:50;;;;;;;7.97;4.65;;;;;;;14.40;49.24;100428.94;5013144;28;20550;-79
2022/10/16 07:55:15;;;;;;;7.20;5.07;;;;;;;14.28;49.22;100441.03;5013889;28;20018;-79
2022/10/16 07:57:41;;;;;;;20.25;5.20;;;;;;;14.96;49.10;100495.06;5013851;28;20022;-79
2022/10/16 08:00:07;;;;;;;7.72;4.65;;;;;;;14.79;48.96;100465.94;5014080;28;21167;-79
2022/10/16 08:02:32;;;;;;;8.15;5.00;;;;;;;14.97;48.58;100480.75;5013944;28;20486;-79
2022/10/16 08:04:57;;;;;;;7.57;5.38;;;;;;;14.24;48.11;100341.44;5013701;28;20037;-80
2022/10/16 08:07:23;;;;;;;7.15;4.88;;;;;;;15.49;48.09;100539.97;5013583;28;20037;-79
2022/10/16 08:09:51;;;;;;;9.50;5.13;;;;;;;15.27;47.84;100482.38;5012388;28;20104;-79
2022/10/16 08:12:17;;;;;;;6.38;4.40;;;;;;;15.00;47.52;100436.00;5012385;28;20498;-79
2022/10/16 08:14:42;;;;;;;6.15;5.55;;;;;;;14.97;47.04;100423.06;5012253;28;20025;-79
2022/10/16 08:17:07;;;;;;;6.13;4.55;;;;;;;15.83;46.89;100543.91;5013523;28;20025;-79
2022/10/16 08:19:34;;;;;;;12.75;5.20;;;;;;;15.45;46.57;100484.63;5013711;28;20049;-79
2022/10/16 08:22:00;;;;;;;5.93;4.70;;;;;;;15.96;46.27;100551.22;5013525;28;20052;-79
2022/10/16 08:24:26;;;;;;;6.63;4.75;;;;;;;15.43;45.97;100462.72;5013544;28;20091;-79
2022/10/16 08:26:54;;;;;;;6.43;5.10;;;;;;;15.49;45.87;100468.09;5013563;28;20550;-79
2022/10/16 08:29:19;;;;;;;6.80;5.15;;;;;;;15.80;45.76;100520.31;5011973;28;20164;-80
2022/10/16 08:31:44;;;;;;;8.30;7.22;;;;;;;15.60;45.47;100497.94;5013215;28;20049;-79
2022/10/16 08:34:10;;;;;;;9.95;7.15;;;;;;;15.81;45.42;100500.66;5011782;28;20026;-77
2022/10/16 08:36:35;;;;;;;8.75;7.05;;;;;;;15.77;44.83;100480.75;5013184;28;20026;-79
2022/10/16 08:39:01;;;;;;;10.82;7.82;;;;;;;15.86;44.71;100488.44;5011929;28;20457;-79
2022/10/16 08:41:35;;;;;;;8.45;7.53;;;;;;;16.30;44.05;100550.53;5013224;28;20026;-79
2022/10/16 08:44:08;;;;;;;8.95;6.60;;;;;;;15.55;44.13;100410.63;5013158;28;20089;-78
2022/10/16 08:46:45;;;;;;;9.23;7.60;;;;;;;16.47;43.36;100551.97;5013083;28;20075;-79
2022/10/16 08:49:15;;;;;;;9.68;8.68;;;;;;;16.51;43.69;100548.72;5012941;28;20022;-79
2022/10/16 08:51:41;;;;;;;10.38;8.93;;;;;;;15.96;43.39;100431.38;5012955;28;20018;-79
2022/10/16 08:54:31;;;;;;;13.98;11.05;;;;;;;16.68;42.23;100543.13;5011751;28;20026;-78
2022/10/16 08:57:00;;;;;;;11.80;9.85;;;;;;;15.85;42.55;100406.06;5012975;28;20029;-77
2022/10/16 08:59:26;;;;;;;12.02;10.60;;;;;;;16.56;42.64;100504.66;5011495;28;20023;-77
2022/10/16 09:01:52;;;;;;;11.45;10.35;;;;;;;16.92;42.22;100541.88;5012692;28;20026;-78
2022/10/16 09:04:36;;;;;;;11.90;9.60;;;;;;;17.00;41.90;100539.88;5012695;28;20076;-78
2022/10/16 09:07:11;;;;;;;12.00;9.57;;;;;;;16.76;42.04;100511.81;5012583;28;20041;-79
2022/10/16 09:09:36;;;;;;;14.00;10.15;;;;;;;17.06;41.75;100539.09;5012636;28;20628;-78
2022/10/16 09:12:07;;;;;;;10.90;9.23;;;;;;;17.21;41.53;100533.69;5012608;28;20105;-79
2022/10/16 09:14:54;;;;;;;12.07;8.65;;;;;;;17.37;41.29;100540.53;5012468;28;20022;-80
2022/10/16 09:17:30;;;;;;;12.57;9.95;;;;;;;17.04;41.12;100469.09;5012299;28;20032;-79
2022/10/16 09:20:01;;;;;;;11.75;9.20;;;;;;;17.51;41.05;100533.41;5011024;28;20029;-78
2022/10/16 09:22:30;;;;;;;13.00;8.88;;;;;;;16.86;40.90;100427.97;5012376;28;20156;-78
2022/10/16 09:25:00;;;;;;;11.02;9.93;;;;;;;17.60;40.29;100540.22;5011108;28;20423;-79
2022/10/16 09:27:26;;;;;;;12.38;10.32;;;;;;;17.59;40.51;100547.41;5012389;28;20041;-78
2022/10/16 09:29:52;;;;;;;12.88;9.55;;;;;;;17.46;40.38;100507.31;5012241;28;20030;-78
2022/10/16 09:32:22;;;;;;;11.95;9.50;;;;;;;16.98;39.95;100413.03;5010980;28;20034;-79
2022/10/16 09:34:53;;;;;;;12.93;9.63;;;;;;;17.56;40.02;100490.91;5012372;28;20514;-78
2022/10/16 09:37:22;;;;;;;12.55;11.15;;;;;;;17.91;39.81;100535.25;5012274;28;20025;-79
2022/10/16 09:39:53;;;;;;;16.25;12.70;;;;;;;18.04;39.01;100529.13;5012212;28;20026;-79
2022/10/16 09:42:23;;;;;;;11.10;9.88;;;;;;;17.53;39.30;100454.75;5010931;28;20593;-78
2022/10/16 09:44:53;;;;;;;11.85;10.65;;;;;;;17.92;39.44;100483.47;5012152;28;20564;-78
2022/10/16 09:47:23;;;;;;;12.65;10.27;;;;;;;18.28;39.04;100511.66;5012129;28;20414;-79
2022/10/16 09:50:24;;;;;;;13.73;10.57;;;;;;;18.26;37.62;100479.78;5012004;28;20030;-78
2022/10/16 09:52:50;;;;;;;12.38;10.55;;;;;;;18.24;38.78;100463.13;5011938;28;20045;-78
2022/10/16 09:55:17;;;;;;;13.35;10.38;;;;;;;18.57;38.26;100516.59;5011042;28;20047;-78
2022/10/16 09:57:53;;;;;;;13.18;11.40;;;;;;;18.65;37.84;100512.97;5011698;28;20140;-79
2022/10/16 10:00:20;;;;;;;13.35;10.80;;;;;;;18.29;37.88;100441.13;5010209;28;20466;-79
2022/10/16 10:02:46;;;;;;;14.02;10.48;;;;;;;18.74;37.92;100501.00;5011578;28;20029;-79
2022/10/16 10:05:26;;;;;;;13.82;11.80;;;;;;;18.61;36.42;100451.03;5011603;28;20502;-78
2022/10/16 10:08:05;;;;;;;12.75;10.95;;;;;;;19.05;36.27;100509.19;5011488;28;20117;-78
2022/10/16 10:10:34;;;;;;;13.85;10.90;;;;;;;19.13;36.62;100510.81;5010506;28;20418;-79
2022/10/16 10:12:59;;;;;;;12.93;10.98;;;;;;;18.40;36.36;100377.16;5010346;28;20056;-80
2022/10/16 10:15:33;;;;;;;12.60;10.95;;;;;;;19.20;36.23;100486.69;5011188;28;20483;-77
2022/10/16 10:17:58;;;;;;;12.13;10.30;;;;;;;19.35;35.89;100498.00;5011583;28;20034;-78
2022/10/16 10:20:34;;;;;;;10.90;9.80;;;;;;;19.23;35.76;100464.84;5010186;28;20033;-79
2022/10/16 10:23:01;;;;;;;11.95;9.70;;;;;;;19.58;35.25;100508.25;5011489;28;20521;-77
2022/10/16 10:25:44;;;;;;;12.05;10.35;;;;;;;19.14;34.47;100418.75;5011231;28;20037;-78
2022/10/16 10:28:34;;;;;;;12.68;9.82;;;;;;;19.52;35.06;100488.47;5011353;28;20060;-79
2022/10/16 10:31:06;;;;;;;11.32;9.88;;;;;;;18.82;35.06;100385.75;5011372;28;20030;-78
2022/10/16 10:33:42;;;;;;;11.07;8.95;;;;;;;19.63;34.48;100495.84;5011292;28;20465;-78
2022/10/16 10:36:26;;;;;;;11.20;9.75;;;;;;;19.76;34.62;100494.13;5011234;28;20088;-79
2022/10/16 10:39:01;;;;;;;9.68;8.63;;;;;;;19.87;34.31;100483.53;5010116;28;20030;-79
2022/10/16 10:41:26;;;;;;;11.65;9.77;;;;;;;19.98;34.20;100482.84;5010239;28;20477;-79
2022/10/16 10:44:22;;;;;;;10.98;9.75;;;;;;;20.09;33.80;100478.69;5011370;28;20113;-78
2022/10/16 10:46:55;;;;;;;11.93;10.05;;;;;;;19.75;33.82;100418.28;5011482;28;20029;-79
2022/10/16 10:49:39;;;;;;;12.20;10.02;;;;;;;20.20;33.47;100475.31;5011483;28;20452;-78
2022/10/16 10:52:22;;;;;;;10.98;9.45;;;;;;;20.31;33.48;100474.59;5011438;28;20070;-78
2022/10/16 10:54:50;;;;;;;10.85;9.73;;;;;;;20.41;33.58;100466.09;5011493;28;20036;-79
2022/10/16 10:57:29;;;;;;;9.90;8.60;;;;;;;20.39;33.60;100462.78;5011302;28;20057;-77
2022/10/16 11:00:09;;;;;;;10.13;8.90;;;;;;;20.48;33.15;100460.66;5010045;28;20026;-78
2022/10/16 11:02:59;;;;;;;8.73;7.07;;;;;;;20.40;31.73;100459.06;5011365;28;20414;-77
2022/10/16 11:05:30;;;;;;;8.23;7.30;;;;;;;20.48;32.45;100455.28;5011097;28;20033;-79
2022/10/16 11:08:01;;;;;;;8.50;7.60;;;;;;;20.58;32.52;100455.59;5010936;28;20120;-78
2022/10/16 11:10:37;;;;;;;8.50;7.60;;;;;;;19.74;32.04;100319.34;5011331;28;20038;-78
2022/10/16 11:13:49;;;;;;;9.13;7.93;;;;;;;20.42;31.30;100430.16;5009728;28;20461;-78
2022/10/16 11:16:21;;;;;;;11.40;8.65;;;;;;;20.50;32.42;100455.88;5004014;28;20049;-79
2022/10/16 11:18:59;;;;;;;11.07;8.60;;;;;;;20.46;31.98;100446.63;5010843;28;20040;-79
2022/10/16 11:21:28;;;;;;;9.65;7.80;;;;;;;20.29;32.49;100406.94;5009538;28;20044;-78
2022/10/16 11:24:20;;;;;;;9.82;7.85;;;;;;;20.59;32.02;100441.16;5010885;28;20030;-79
2022/10/16 11:26:47;;;;;;;8.90;7.28;;;;;;;20.16;31.94;100406.25;5004046;28;20041;-79